Airfield :
LOGIN :

Register | Disclaimer

   EN    FR    IT 

 










Legend :    VFR   Marginal VFR   IFR   Intensive IFR   Very Intensive IFR
Visi :
Ceiling :
>= 8 km
>= 3000ft
5 to 8 km
1000 to 3000 ft
1500m to 5 km
500 to 1000 ft
800 to 1500m
200 to 500 ft
< 800m
< 200 ft
Symbols :   Thunderstorms  Fog  Heavy snow  Heavy precipitations  Wind > 20 kt
SIGMETs :     Misc.  Thunderstorms  Icing  Turbulence  Mountain Waves  Volcanic Ashes






- Airport Elevation : 2731 ft
- IATA code : LPY


LFHP - Le Puy Loudes

CURRENT METAR :
  • 090930Z AUTO 27008KT 240V300 9999 -RA FEW026/// BKN038/// BKN047/// ///TCU 04/02 Q1014

EXPIRED METARs :
  • 090900Z AUTO 27012KT 210V310 9999 -RA FEW020 BKN032 BKN044 04/01 Q1013
  • 090830Z AUTO 28009KT 230V320 9999 SCT016 BKN026 BKN052 04/01 Q1013
  • 090800Z AUTO 28011KT 240V310 9999 FEW018 SCT047 04/01 Q1013
  • 090730Z AUTO 27010KT 240V310 9999 -RA FEW008 BKN027 OVC056 04/01 Q1013
  • 090700Z AUTO 28008KT 230V310 9999 -RA FEW018/// SCT032/// BKN047/// ///TCU 04/01 Q1013

Expired Forecast.



MET'MAP, your aeronautical weather chart ! - Copyright ORBIFLY December 2007 - Disclaimer

ORBIFLY MET'MAP TEAM :

Programming & Development : Alexandra Zaïnal
Concept & original design : Baudouin d'Aumeries
Assistance for programming : Marc-Olivier Méhu
Technical & hardware support : Manuel Goepfert

Contact : metmap@orbifly.com




SOURCES & CREDITS :

   NOAA